Allen, Kansas
Current Conditions -  °F | °C
As of 2:53 AM on Thursday 23 Oct 2014 (Local Time) from KEMP Reporting Station
Light Rain Light Rain  
Wind Chill: 62°   Ceiling: 4900
Heat Index: 62°   Visibility: 8mi
Dew Point: 60°   Wind: 5mph
Humidity: 93%   Direction: 180°S
Pressure: 30.1"   Gusts: NA
Location:  38.66°N, 96.17°W
Report Text: KEMP 230753Z AUTO 18004KT 8SM -RA OVC049 17/16 A3010 RMK AO2 RAB0655 SLP186 P0003 T01670156
Loading
Personal Weather Stations






























Interactive Weather Map
Tropical Storm Tracking
New forecast layout! Learn more

10-Day Weather Forecast

Advertisements
Track Severe Weather on mobile